Latest Weather Observations for Dartmoor

IDV60801

Issued at 2:22 pm EST Thursday 1 October 2020 (issued every 10 minutes, with the page automatically refreshed every 10 minutes)

About weather observations | Map of weather stations | Latest weather observations for VIC | Other Formats
Station Details ID: 090194 Name: DARTMOOR Lat: -37.92 Lon: 141.26 Height: 51.0 m
Data from the previous 72 hours. | See also: Recent months at Dartmoor
Date/Time
EST
Temp
°C
App
Temp
°C
Dew
Point
°C
Rel
Hum
%
Delta-T
°C
Wind Press
QNH
hPa
Press
MSL
hPa
Rain since
9am
mm
Dir  Spd
km/h
Gust
km/h
Spd
kts
Gust
kts
01/02:00pm 16.8 10.9 7.7 55 4.6 NNW 28 43 15 23 1014.9 1014.9 0.0
01/01:30pm 16.6 11.6 8.1 57 4.3 NW 24 33 13 18 1015.2 1015.2 0.0
01/01:00pm 16.1 11.2 8.3 60 4.0 NNW 24 35 13 19 1015.5 1015.5 0.0
01/12:30pm 16.0 11.9 8.5 61 3.8 NNW 20 32 11 17 1015.7 1015.7 0.0
01/12:00pm 14.8 9.8 6.4 57 4.1 NW 22 33 12 18 1015.8 1015.8 0.0
01/11:30am 15.0 10.5 6.8 58 4.0 NW 20 33 11 18 1016.1 1016.1 0.0
01/11:00am 14.1 9.3 7.4 64 3.3 NNW 22 30 12 16 1016.3 1016.3 0.0
01/10:30am 13.6 9.5 7.8 68 2.9 NW 19 30 10 16 1016.5 1016.5 0.0
01/10:00am 12.9 8.9 8.4 74 2.2 NNW 19 28 10 15 1016.6 1016.6 0.0
01/09:30am 12.2 9.5 10.3 88 1.0 NW 15 22 8 12 1016.7 1016.7 0.0
01/09:00am 10.2 7.7 9.7 97 0.3 NNW 13 17 7 9 1016.4 1016.4 3.0
01/08:30am 9.7 8.3 9.4 98 0.1 NNW 7 11 4 6 1016.1 1016.1 3.0
01/08:00am 7.8 5.1 7.5 98 0.1 NNW 11 15 6 8 1016.0 1016.0 3.0
01/07:30am 7.0 4.9 6.7 98 0.1 NNW 7 9 4 5 1016.0 1016.0 3.0
01/07:00am 6.1 4.4 5.8 98 0.1 NNW 4 6 2 3 1015.5 1015.5 3.0
01/06:30am 5.9 3.8 5.6 98 0.1 N 6 9 3 5 1014.9 1014.9 3.0
01/06:00am 5.8 3.5 5.5 98 0.1 NNW 7 11 4 6 1014.7 1014.7 3.0
01/05:30am 6.0 3.7 5.7 98 0.1 NNW 7 11 4 6 1014.3 1014.3 3.0
01/05:00am 5.7 3.3 5.4 98 0.1 NNW 7 9 4 5 1014.3 1014.3 3.0
01/04:30am 5.9 3.6 5.6 98 0.1 NNW 7 9 4 5 1013.8 1013.8 3.0
01/04:00am 6.2 3.6 5.9 98 0.1 NNW 9 13 5 7 1013.7 1013.7 3.0
01/03:30am 6.5 3.9 6.2 98 0.1 NNW 9 13 5 7 1013.4 1013.4 3.0
01/03:00am 6.7 4.2 6.4 98 0.1 NW 9 13 5 7 1013.4 1013.4 3.0
01/02:30am 6.9 4.4 6.6 98 0.1 NW 9 13 5 7 1013.3 1013.3 3.0
01/02:00am 7.6 5.6 7.3 98 0.1 NNW 7 11 4 6 1013.4 1013.4 2.8
01/01:30am 7.1 5.0 6.8 98 0.1 NW 7 9 4 5 1013.2 1013.2 2.8
01/01:00am 7.5 5.5 7.2 98 0.1 NW 7 9 4 5 1013.3 1013.3 2.8
01/12:30am 7.2 5.3 6.9 98 0.1 NW 6 7 3 4 1012.9 1012.9 2.4
01/12:00am 6.9 4.4 6.6 98 0.1 NW 9 11 5 6 1012.7 1012.7 2.4
 
Date/Time
EST
Temp
°C
App
Temp
°C
Dew
Point
°C
Rel
Hum
%
Delta-T
°C
Wind Press
QNH
hPa
Press
MSL
hPa
Rain since
9am
mm
Dir  Spd
km/h
Gust
km/h
Spd
kts
Gust
kts
30/11:30pm 7.1 5.2 6.8 98 0.1 NW 6 9 3 5 1012.6 1012.6 2.4
30/11:00pm 7.6 5.8 7.3 98 0.1 NW 6 9 3 5 1012.4 1012.4 2.4
30/10:30pm 8.0 6.1 7.7 98 0.1 NNW 7 9 4 5 1012.2 1012.2 2.4
30/10:00pm 8.6 6.5 8.3 98 0.1 NW 9 11 5 6 1012.1 1012.1 2.4
30/09:30pm 9.1 7.1 8.8 98 0.1 NW 9 13 5 7 1011.9 1011.9 2.4
30/09:00pm 9.8 8.0 9.5 98 0.1 WNW 9 13 5 7 1011.6 1011.6 2.4
30/08:30pm 9.9 7.8 9.6 98 0.2 WNW 11 17 6 9 1011.1 1011.1 2.4
30/08:00pm 9.6 8.3 9.3 98 0.1 NW 6 7 3 4 1010.7 1010.7 2.4
30/07:30pm 9.9 8.7 9.6 98 0.2 NW 6 9 3 5 1010.0 1010.0 2.2
30/07:00pm 10.7 9.5 10.2 97 0.3 WNW 7 15 4 8 1009.6 1009.6 2.2
30/06:30pm 11.6 9.5 11.1 97 0.3 W 13 30 7 16 1009.1 1009.1 2.2
30/06:00pm 12.0 10.1 11.7 98 0.2 W 13 19 7 10 1008.6 1008.6 2.2
30/05:30pm 11.9 10.3 11.6 98 0.2 W 11 19 6 10 1008.0 1008.0 2.2
30/05:00pm 11.2 8.7 10.9 98 0.2 W 15 24 8 13 1007.5 1007.6 2.2
30/04:30pm 12.6 10.5 12.3 98 0.2 NW 15 22 8 12 1007.0 1007.1 1.4
30/04:00pm 12.4 8.5 12.1 98 0.2 NW 24 37 13 20 1007.0 1007.1 1.4
30/03:30pm 13.0 10.0 12.5 97 0.3 NW 20 30 11 16 1006.9 1007.0 0.8
30/03:00pm 14.2 11.6 12.1 87 1.1 NW 17 26 9 14 1006.9 1007.0 0.0
30/02:30pm 15.0 10.1 9.8 71 2.7 NW 26 43 14 23 1007.0 1007.1 0.0
30/02:00pm 15.7 11.9 9.8 68 3.1 NW 20 30 11 16 1007.2 1007.3 0.0
30/01:30pm 14.6 10.6 10.6 77 2.1 NW 22 35 12 19 1007.6 1007.7 0.0
30/01:00pm 14.7 10.4 10.7 77 2.1 WNW 24 39 13 21 1007.7 1007.8 0.0
30/12:30pm 14.2 10.7 12.1 87 1.1 NW 22 39 12 21 1007.8 1007.9 0.0
30/12:00pm 13.1 9.7 12.6 97 0.3 WNW 22 35 12 19 1008.0 1008.0 0.0
30/11:30am 13.9 11.2 13.6 98 0.2 NW 20 32 11 17 1008.0 1008.0 0.0
30/11:00am 14.2 11.3 13.9 98 0.2 NW 22 37 12 20 1008.2 1008.2 0.0
30/10:30am 14.8 12.3 14.0 95 0.5 NNW 20 33 11 18 1008.4 1008.4 0.0
30/10:00am 15.0 11.6 13.7 92 0.7 NNW 24 39 13 21 1008.6 1008.6 0.0
30/09:30am 14.2 11.8 13.9 98 0.2 NNW 19 32 10 17 1009.1 1009.1 0.0
30/09:00am 13.6 11.0 13.3 98 0.2 NNW 19 30 10 16 1009.2 1009.2 0.0
30/08:30am 12.9 10.9 12.6 98 0.2 N 15 24 8 13 1009.3 1009.3 0.0
30/08:00am 12.7 10.6 12.4 98 0.2 N 15 20 8 11 1009.5 1009.5 0.0
30/07:30am 12.4 10.6 12.1 98 0.2 N 13 19 7 10 1009.4 1009.4 0.0
30/07:00am 12.1 10.6 11.8 98 0.2 N 11 17 6 9 1009.5 1009.5 0.0
30/06:30am 12.0 10.4 11.7 98 0.2 N 11 15 6 8 1009.5 1009.5 0.0
30/06:00am 11.9 9.9 11.6 98 0.2 N 13 20 7 11 1009.3 1009.3 0.0
30/05:30am 11.7 10.1 11.4 98 0.2 N 11 15 6 8 1009.3 1009.3 0.0
30/05:00am 11.9 10.7 11.6 98 0.2 N 9 13 5 7 1009.4 1009.4 0.0
30/04:30am 11.9 11.1 11.6 98 0.2 NNE 7 11 4 6 1009.6 1009.6 0.0
30/04:00am 11.6 10.7 11.3 98 0.2 NNE 7 9 4 5 1009.8 1009.8 0.0
30/03:30am 11.8 11.1 11.3 97 0.3 NNE 6 9 3 5 1010.1 1010.1 0.0
30/03:00am 12.2 11.6 11.6 96 0.3 NNE 6 9 3 5 1010.2 1010.2 0.0
30/02:30am 12.8 12.0 11.7 93 0.6 N 7 9 4 5 1011.0 1011.0 0.0
30/02:00am 12.9 12.1 11.6 92 0.7 N 7 9 4 5 1011.6 1011.6 0.0
30/01:30am 13.1 11.9 11.5 90 0.9 N 9 13 5 7 1012.1 1012.1 0.0
30/01:00am 13.3 12.4 11.4 88 1.0 N 7 11 4 6 1012.1 1012.1 0.0
30/12:30am 13.4 12.1 11.3 87 1.1 N 9 15 5 8 1012.2 1012.2 0.0
30/12:00am 13.5 12.4 10.7 83 1.5 N 7 13 4 7 1012.7 1012.7 0.0
 
Date/Time
EST
Temp
°C
App
Temp
°C
Dew
Point
°C
Rel
Hum
%
Delta-T
°C
Wind Press
QNH
hPa
Press
MSL
hPa
Rain since
9am
mm
Dir  Spd
km/h
Gust
km/h
Spd
kts
Gust
kts
29/11:30pm 13.4 12.2 10.4 82 1.6 N 7 11 4 6 1012.9 1012.9 0.0
29/11:00pm 13.2 11.9 10.0 81 1.7 N 7 13 4 7 1013.0 1013.0 0.0
29/10:30pm 13.5 11.4 9.9 79 1.9 NNW 11 15 6 8 1013.1 1013.1 0.0
29/10:00pm 13.8 12.6 9.5 75 2.2 NNW 6 9 3 5 1013.4 1013.4 0.0
29/09:30pm 14.7 12.5 9.3 70 2.8 NNW 11 20 6 11 1013.5 1013.5 0.0
29/09:00pm 15.2 13.3 8.9 66 3.2 NNW 9 13 5 7 1013.8 1013.8 0.0
29/08:30pm 15.7 13.7 8.7 63 3.6 NNW 9 13 5 7 1014.0 1014.0 0.0
29/08:00pm 16.1 14.2 9.1 63 3.6 NW 9 17 5 9 1013.8 1013.8 0.0
29/07:30pm 16.6 15.0 8.6 59 4.1 NNE 7 11 4 6 1013.4 1013.4 0.0
29/07:00pm 17.2 15.1 8.4 56 4.5 NNE 9 15 5 8 1013.2 1013.2 0.0
29/06:30pm 17.3 15.2 8.4 56 4.6 NNE 9 11 5 6 1013.2 1013.2 0.0
29/06:00pm 17.7 15.7 8.6 55 4.7 NNE 9 13 5 7 1013.1 1013.1 0.0
29/05:30pm 17.9 15.5 8.5 54 4.9 NE 11 17 6 9 1013.0 1013.0 0.0
29/05:00pm 18.2 15.2 7.9 51 5.3 NNE 13 20 7 11 1013.3 1013.3 0.0
29/04:30pm 18.6 15.7 8.3 51 5.3 NNE 13 20 7 11 1013.6 1013.6 0.0
29/04:00pm 18.4 14.1 7.2 48 5.7 NNE 19 32 10 17 1013.8 1013.8 0.0
29/03:30pm 18.6 14.3 7.7 49 5.6 NNE 20 35 11 19 1014.0 1014.0 0.0
29/03:00pm 18.6 14.5 7.7 49 5.6 NNE 19 28 10 15 1014.3 1014.3 0.0
29/02:30pm 18.9 14.9 8.3 50 5.5 NNE 19 30 10 16 1014.6 1014.6 0.0
29/02:00pm 18.1 13.8 7.8 51 5.2 NNE 20 33 11 18 1015.3 1015.3 0.0
29/01:30pm 17.8 13.5 7.2 50 5.3 NNE 19 35 10 19 1016.0 1016.0 0.0
29/01:00pm 17.4 12.1 6.6 49 5.3 NNE 24 35 13 19 1016.7 1016.7 0.0
29/12:30pm 17.3 11.9 6.2 48 5.5 N 24 41 13 22 1017.1 1017.1 0.0
29/12:00pm 17.9 12.7 7.3 50 5.3 NNE 24 37 13 20 1017.6 1017.6 0.0
29/11:30am 16.7 11.4 6.8 52 4.9 N 24 37 13 20 1018.4 1018.5 0.0
29/11:00am 17.0 12.7 7.1 52 4.9 N 19 28 10 15 1018.7 1018.8 0.0
29/10:30am 15.7 10.6 6.2 53 4.6 NNE 22 35 12 19 1018.9 1019.0 0.0
29/10:00am 14.8 10.4 6.4 57 4.1 NNE 19 33 10 18 1019.2 1019.3 0.0
29/09:30am 13.9 9.5 6.5 61 3.6 NNE 19 30 10 16 1020.0 1020.1 0.0
29/09:00am 12.4 9.6 7.1 70 2.6 NNE 11 17 6 9 1020.4 1020.5 0.0
29/08:30am 10.6 10.1 9.4 92 0.6 ENE 2 7 1 4 1020.5 1020.6 0.0
29/08:00am 8.6 7.8 8.2 97 0.2 ENE 2 4 1 2 1020.4 1020.5 0.0
29/07:30am 7.1 5.6 6.8 98 0.1 ENE 4 6 2 3 1020.6 1020.7 0.0
29/07:00am 6.0 4.3 5.7 98 0.1 E 4 4 2 2 1020.7 1020.8 0.0
29/06:30am 5.8 3.6 5.5 98 0.1 ENE 6 7 3 4 1020.6 1020.7 0.0
29/06:00am 5.5 3.3 5.2 98 0.1 ENE 6 6 3 3 1020.9 1021.0 0.0
29/05:30am 5.6 3.2 5.3 98 0.1 ENE 7 9 4 5 1020.9 1021.0 0.0
29/05:00am 5.3 2.8 5.0 98 0.1 ENE 7 9 4 5 1020.7 1020.8 0.0
29/04:30am 4.9 2.6 4.6 98 0.1 E 6 7 3 4 1020.9 1021.0 0.0
29/04:00am 5.6 3.2 5.3 98 0.1 ENE 7 9 4 5 1020.9 1021.0 0.0
29/03:30am 6.0 3.7 5.7 98 0.1 ENE 7 7 4 4 1021.0 1021.1 0.0
29/03:00am 6.3 4.0 5.9 97 0.2 ENE 7 11 4 6 1021.2 1021.3 0.0
29/02:30am 6.6 4.0 6.2 97 0.2 ENE 9 13 5 7 1021.5 1021.6 0.0
29/02:00am 6.7 4.2 6.4 98 0.1 ENE 9 15 5 8 1022.0 1022.1 0.0
29/01:30am 6.5 3.9 6.2 98 0.1 ENE 9 15 5 8 1022.3 1022.4 0.0
29/01:00am 6.3 3.7 5.9 97 0.2 ENE 9 11 5 6 1022.7 1022.8 0.0
29/12:30am 6.3 4.0 5.9 97 0.2 E 7 11 4 6 1023.1 1023.2 0.0
29/12:00am 6.7 4.1 6.3 97 0.2 E 9 13 5 7 1023.6 1023.7 0.0
 
Date/Time
EST
Temp
°C
App
Temp
°C
Dew
Point
°C
Rel
Hum
%
Delta-T
°C
Wind Press
QNH
hPa
Press
MSL
hPa
Rain since
9am
mm
Dir  Spd
km/h
Gust
km/h
Spd
kts
Gust
kts
28/11:30pm 6.6 4.0 6.2 97 0.2 E 9 13 5 7 1024.2 1024.3 0.0
28/11:00pm 6.4 3.8 6.0 97 0.2 E 9 15 5 8 1024.5 1024.6 0.0
28/10:30pm 6.5 3.9 6.1 97 0.2 ESE 9 15 5 8 1024.6 1024.7 0.0
28/10:00pm 7.1 4.6 6.7 97 0.2 E 9 13 5 7 1025.2 1025.3 0.0
28/09:30pm 7.5 4.7 6.9 96 0.3 ESE 11 17 6 9 1025.4 1025.5 0.0
28/09:00pm 7.9 5.9 7.3 96 0.3 ESE 7 11 4 6 1025.3 1025.4 0.0
28/08:30pm 8.2 6.3 7.4 95 0.4 ESE 7 13 4 7 1024.9 1025.0 0.0
28/08:00pm 8.6 6.0 7.7 94 0.4 ESE 11 15 6 8 1024.8 1024.9 0.0
28/07:30pm 9.3 6.3 7.9 91 0.7 ESE 13 19 7 10 1024.4 1024.5 0.0
28/07:00pm 10.0 6.3 8.1 88 0.9 ESE 17 20 9 11 1024.1 1024.2 0.0
28/06:30pm 11.1 7.1 8.1 82 1.5 ESE 19 24 10 13 1024.2 1024.3 0.0
28/06:00pm 12.4 8.2 8.3 76 2.0 ESE 20 28 11 15 1024.2 1024.3 0.0
28/05:30pm 13.8 9.9 8.6 71 2.6 ESE 19 24 10 13 1024.2 1024.3 0.0
28/05:00pm 15.2 12.3 8.2 63 3.5 E 13 24 7 13 1024.4 1024.5 0.0
28/04:30pm 15.8 12.8 6.0 52 4.7 E 11 19 6 10 1024.2 1024.3 0.0
28/04:00pm 16.1 12.7 6.0 51 4.9 ESE 13 19 7 10 1024.2 1024.3 0.0
28/03:30pm 16.4 14.1 7.3 55 4.5 ENE 9 19 5 10 1024.3 1024.4 0.0
28/03:00pm 15.7 12.9 7.0 56 4.3 SE 11 17 6 9 1025.0 1025.1 0.0
28/02:30pm 16.3 14.1 7.8 57 4.3 E 9 19 5 10 1025.4 1025.5 0.0

Other formats

Comma delimited format used in spreadsheet applications
http://www.bom.gov.au/fwo/IDV60801/IDV60801.95822.axf

JavaScript Object Notation format (JSON) in row-major order
http://www.bom.gov.au/fwo/IDV60801/IDV60801.95822.json

Data quality

Most of these data are generated automatically and are frequently updated. Quality checks on data are not normally performed. It is possible for incorrect values to appear. Refer to information at About Latest Weather Observations and please check the disclaimer before using these data.